Thousand Palms, CA (92276)

1:09 AM PDT en Noviembre 01, 2014 (GMT -0700)
DesertWeather com | Change Station
CLOSE
Current Station
Estación meteorológica personal
Location: Thousand Palms, CA
Altura: 275 ft
Estaciones meteorológicas cercanas
Aviso en curso: Wind Advisory

Alt 275 ft 33.82 °N, 116.40 °W | Updated 3 minutes ago

Despejado
Despejado
68.5 ° F
Sensación térmica 68.5 ° F
N
6.0
Viento Variable Viento desde NNO
Gusts 0.0 mph

Hoy
Alta -- | Baja -- ° F
--% Posibilidad de precipitaciones
Ayer
Alta -- | Baja -- ° F
Precip. -- pul
7:04 AM 5:52 PM
Gibosa creciente, 64% visible
Presión 29.75 pul
Visibilidad -9999.0 Millas
Nubes Muy nublado 9000 ft
Punto de rocío 52 ° F
Humedad 55%
Precipitaciones 0.00 pul
Espesor de la nieve No disponible.
UV 0 de una escala de 12
Polen 2.70 de una escala de 12
Calidad del aire No disponible.
Flu Activity No disponible.
METAR KPSP 010753Z 33015G29KT BKN090 18/12 A2976 RMK AO2 PK WND 32029/0746 SLP075 T01830117 402830144

More Conditions Fewer Conditions

Presión 29.75 pul
Visibilidad -9999.0 Millas
Nubes Muy nublado 9000 ft
Punto de rocío 52 ° F
Humedad 55%
Precipitaciones 0.00 pul
Espesor de la nieve No disponible.
UV 0 de una escala de 12
Polen 2.70 de una escala de 12
Calidad del aire No disponible.
Flu Activity No disponible.
METAR KPSP 010753Z 33015G29KT BKN090 18/12 A2976 RMK AO2 PK WND 32029/0746 SLP075 T01830117 402830144

More Conditions Fewer Conditions

10-Day Weather Forecast

Almanac

Astronomía

Nov. 01, 2014 Salida Puesta
Hora real
Crepúsculo civil
Crepúsculo náutico
Crepúsculo astronómico
Luna
Horas de luz
Horas de luz
Tomorrow will be .
, % of the Moon is Illuminated

Extremos de hoy

Máximos del estado Bajos del estado

Community

WunderPhotos

Upload Photos

1,766,866 ¡fotos cargadas!

WunderBlogs® & News

Nearby

Calidad del aire

  Calidad del aire Índice AQ Contaminante
Not available.

Grosos de nieve

Estación Profundido Altura

Actividad de terremotos

Ciudad Distance Mag. Tiempo y dato
Magnitud mínima muestra es 2,5.

Temperaturas de aguas costeras

Lugar Temperatura

Estaciones meteorológicas cercanas